Terminal Aerodrome Forecast
Issued by NWS

Home | Current Version | Previous Version | Text Only | Print | Product List | Glossary On
Versions: 1 2 3 4 5 6 7 8 9 10 11 12 13 14
000
FTUS42 KMLB 011100
TAFTIX
TAF
KTIX 011132Z 0112/0212 18004KT P6SM SCT250
     FM011400 20005KT P6SM SCT030 SCT250
     FM011800 12008KT P6SM VCTS BKN035CB
      TEMPO 0119/0123 3SM TSRA BKN020CB OVC040
     FM020000 14005KT P6SM SCT040 BKN100 OVC120=

USA.gov is the U.S. government's official web portal to all federal, state and local government web resources and services.